sensor_id;sensor_type;location;lat;lon;timestamp;temperature;humidity
28069;DHT22;15382;47.578;8.086;2023-03-23T00:09:42;9.80;99.90
28069;DHT22;15382;47.578;8.086;2023-03-23T00:19:43;9.60;99.90
28069;DHT22;15382;47.578;8.086;2023-03-23T00:29:48;10.00;99.90
28069;DHT22;15382;47.578;8.086;2023-03-23T00:39:49;9.80;99.90
28069;DHT22;15382;47.578;8.086;2023-03-23T00:49:52;9.60;99.90
28069;DHT22;15382;47.578;8.086;2023-03-23T00:59:53;9.60;99.90
28069;DHT22;15382;47.578;8.086;2023-03-23T01:09:54;9.90;99.90
28069;DHT22;15382;47.578;8.086;2023-03-23T01:19:58;10.00;99.90
28069;DHT22;15382;47.578;8.086;2023-03-23T01:29:58;10.00;99.90
28069;DHT22;15382;47.578;8.086;2023-03-23T01:39:59;9.70;99.90
28069;DHT22;15382;47.578;8.086;2023-03-23T01:50:00;9.70;99.90
28069;DHT22;15382;47.578;8.086;2023-03-23T02:00:05;9.60;99.90
28069;DHT22;15382;47.578;8.086;2023-03-23T02:10:15;9.70;99.90
28069;DHT22;15382;47.578;8.086;2023-03-23T02:20:20;9.40;99.90
28069;DHT22;15382;47.578;8.086;2023-03-23T02:40:45;9.40;99.90
28069;DHT22;15382;47.578;8.086;2023-03-23T02:50:49;9.90;99.90
28069;DHT22;15382;47.578;8.086;2023-03-23T03:00:53;10.00;99.90
28069;DHT22;15382;47.578;8.086;2023-03-23T03:11:12;10.00;99.90
28069;DHT22;15382;47.578;8.086;2023-03-23T03:21:15;10.00;99.90
28069;DHT22;15382;47.578;8.086;2023-03-23T03:31:28;10.00;99.90
28069;DHT22;15382;47.578;8.086;2023-03-23T03:41:30;9.90;99.90
28069;DHT22;15382;47.578;8.086;2023-03-23T03:51:32;9.80;99.90
28069;DHT22;15382;47.578;8.086;2023-03-23T04:01:34;9.80;99.90
28069;DHT22;15382;47.578;8.086;2023-03-23T04:11:34;9.80;99.90
28069;DHT22;15382;47.578;8.086;2023-03-23T04:21:55;9.90;99.90
28069;DHT22;15382;47.578;8.086;2023-03-23T04:31:59;9.90;99.90
28069;DHT22;15382;47.578;8.086;2023-03-23T04:42:11;9.90;99.90
28069;DHT22;15382;47.578;8.086;2023-03-23T04:52:25;9.80;99.90
28069;DHT22;15382;47.578;8.086;2023-03-23T05:02:30;9.90;99.90
28069;DHT22;15382;47.578;8.086;2023-03-23T05:12:33;9.90;99.90
28069;DHT22;15382;47.578;8.086;2023-03-23T05:22:39;9.90;99.90
28069;DHT22;15382;47.578;8.086;2023-03-23T05:32:41;9.90;99.90
28069;DHT22;15382;47.578;8.086;2023-03-23T05:42:57;9.80;99.90
28069;DHT22;15382;47.578;8.086;2023-03-23T05:53:17;9.80;99.90
28069;DHT22;15382;47.578;8.086;2023-03-23T06:03:18;9.90;99.90
28069;DHT22;15382;47.578;8.086;2023-03-23T06:13:29;10.00;99.90
28069;DHT22;15382;47.578;8.086;2023-03-23T06:23:38;10.10;99.90
28069;DHT22;15382;47.578;8.086;2023-03-23T06:33:40;10.30;99.90
28069;DHT22;15382;47.578;8.086;2023-03-23T06:44:01;10.60;99.90
28069;DHT22;15382;47.578;8.086;2023-03-23T06:54:06;11.00;99.90
28069;DHT22;15382;47.578;8.086;2023-03-23T07:04:12;11.20;99.90
28069;DHT22;15382;47.578;8.086;2023-03-23T07:14:23;11.20;99.90
28069;DHT22;15382;47.578;8.086;2023-03-23T07:24:24;11.20;99.90
28069;DHT22;15382;47.578;8.086;2023-03-23T07:34:45;11.40;99.90
28069;DHT22;15382;47.578;8.086;2023-03-23T07:44:54;11.30;99.90
28069;DHT22;15382;47.578;8.086;2023-03-23T07:54:55;11.60;99.90
28069;DHT22;15382;47.578;8.086;2023-03-23T08:05:08;11.80;99.90
28069;DHT22;15382;47.578;8.086;2023-03-23T08:15:44;12.30;99.90
28069;DHT22;15382;47.578;8.086;2023-03-23T08:26:12;13.10;99.90
28069;DHT22;15382;47.578;8.086;2023-03-23T08:36:39;13.50;99.90
28069;DHT22;15382;47.578;8.086;2023-03-23T08:47:00;13.60;99.90
28069;DHT22;15382;47.578;8.086;2023-03-23T08:57:30;13.80;99.90
28069;DHT22;15382;47.578;8.086;2023-03-23T09:07:46;14.70;99.90
28069;DHT22;15382;47.578;8.086;2023-03-23T09:17:50;15.00;99.90
28069;DHT22;15382;47.578;8.086;2023-03-23T09:27:56;15.50;99.90
28069;DHT22;15382;47.578;8.086;2023-03-23T09:37:57;15.70;99.90
28069;DHT22;15382;47.578;8.086;2023-03-23T10:09:15;15.60;99.90
28069;DHT22;15382;47.578;8.086;2023-03-23T10:19:35;15.70;99.90
28069;DHT22;15382;47.578;8.086;2023-03-23T10:29:42;15.90;99.90
28069;DHT22;15382;47.578;8.086;2023-03-23T10:39:56;15.80;99.90
28069;DHT22;15382;47.578;8.086;2023-03-23T10:50:02;15.80;99.90
28069;DHT22;15382;47.578;8.086;2023-03-23T11:00:18;15.90;99.90
28069;DHT22;15382;47.578;8.086;2023-03-23T11:20:28;16.10;99.90
28069;DHT22;15382;47.578;8.086;2023-03-23T11:30:30;16.40;99.90
28069;DHT22;15382;47.578;8.086;2023-03-23T11:40:32;16.50;99.90
28069;DHT22;15382;47.578;8.086;2023-03-23T12:00:55;16.90;99.90
28069;DHT22;15382;47.578;8.086;2023-03-23T12:11:08;17.20;99.90
28069;DHT22;15382;47.578;8.086;2023-03-23T13:12:18;16.90;99.90
28069;DHT22;15382;47.578;8.086;2023-03-23T13:22:50;16.90;99.90
28069;DHT22;15382;47.578;8.086;2023-03-23T13:33:02;16.70;99.90
28069;DHT22;15382;47.578;8.086;2023-03-23T13:43:04;16.90;99.90
28069;DHT22;15382;47.578;8.086;2023-03-23T13:53:12;17.40;99.90
28069;DHT22;15382;47.578;8.086;2023-03-23T14:03:35;17.50;99.90
28069;DHT22;15382;47.578;8.086;2023-03-23T14:13:44;17.30;99.90
28069;DHT22;15382;47.578;8.086;2023-03-23T14:23:46;16.90;99.90
28069;DHT22;15382;47.578;8.086;2023-03-23T14:33:48;16.70;99.90
28069;DHT22;15382;47.578;8.086;2023-03-23T14:43:49;16.40;99.90
28069;DHT22;15382;47.578;8.086;2023-03-23T14:53:52;16.30;99.90
28069;DHT22;15382;47.578;8.086;2023-03-23T15:04:20;16.40;99.90
28069;DHT22;15382;47.578;8.086;2023-03-23T15:14:26;16.70;99.90
28069;DHT22;15382;47.578;8.086;2023-03-23T15:24:37;17.00;99.90
28069;DHT22;15382;47.578;8.086;2023-03-23T15:34:38;16.80;99.90
28069;DHT22;15382;47.578;8.086;2023-03-23T15:44:40;16.50;99.90
28069;DHT22;15382;47.578;8.086;2023-03-23T15:54:48;16.40;99.90
28069;DHT22;15382;47.578;8.086;2023-03-23T16:04:49;16.20;99.90
28069;DHT22;15382;47.578;8.086;2023-03-23T16:14:51;16.10;99.90
28069;DHT22;15382;47.578;8.086;2023-03-23T16:24:52;15.80;99.90
28069;DHT22;15382;47.578;8.086;2023-03-23T16:34:53;15.80;99.90
28069;DHT22;15382;47.578;8.086;2023-03-23T16:44:54;15.50;99.90
28069;DHT22;15382;47.578;8.086;2023-03-23T16:54:55;15.10;99.90
28069;DHT22;15382;47.578;8.086;2023-03-23T17:04:56;14.80;99.90
28069;DHT22;15382;47.578;8.086;2023-03-23T17:14:57;14.60;99.90
28069;DHT22;15382;47.578;8.086;2023-03-23T17:24:58;14.40;99.90
28069;DHT22;15382;47.578;8.086;2023-03-23T17:34:59;14.20;99.90
28069;DHT22;15382;47.578;8.086;2023-03-23T17:45:02;14.10;99.90
28069;DHT22;15382;47.578;8.086;2023-03-23T17:55:03;14.10;99.90
28069;DHT22;15382;47.578;8.086;2023-03-23T18:05:04;13.60;99.90
28069;DHT22;15382;47.578;8.086;2023-03-23T18:15:06;13.60;99.90
28069;DHT22;15382;47.578;8.086;2023-03-23T18:25:07;13.40;99.90
28069;DHT22;15382;47.578;8.086;2023-03-23T18:35:09;13.20;99.90
28069;DHT22;15382;47.578;8.086;2023-03-23T18:45:11;13.10;99.90
28069;DHT22;15382;47.578;8.086;2023-03-23T18:55:12;13.10;99.90
28069;DHT22;15382;47.578;8.086;2023-03-23T19:05:12;12.80;99.90
28069;DHT22;15382;47.578;8.086;2023-03-23T19:15:14;12.60;99.90
28069;DHT22;15382;47.578;8.086;2023-03-23T19:25:15;12.80;99.90
28069;DHT22;15382;47.578;8.086;2023-03-23T19:35:16;12.90;99.90
28069;DHT22;15382;47.578;8.086;2023-03-23T19:45:17;12.90;99.90
28069;DHT22;15382;47.578;8.086;2023-03-23T19:55:18;12.70;99.90
28069;DHT22;15382;47.578;8.086;2023-03-23T20:05:19;12.60;99.90
28069;DHT22;15382;47.578;8.086;2023-03-23T20:15:20;12.70;99.90
28069;DHT22;15382;47.578;8.086;2023-03-23T20:25:21;12.80;99.90
28069;DHT22;15382;47.578;8.086;2023-03-23T20:35:22;12.40;99.90
28069;DHT22;15382;47.578;8.086;2023-03-23T20:45:22;12.60;99.90
28069;DHT22;15382;47.578;8.086;2023-03-23T20:55:23;12.60;99.90
28069;DHT22;15382;47.578;8.086;2023-03-23T21:05:25;12.70;99.90
28069;DHT22;15382;47.578;8.086;2023-03-23T21:15:25;12.50;99.90
28069;DHT22;15382;47.578;8.086;2023-03-23T21:25:27;12.50;99.90
28069;DHT22;15382;47.578;8.086;2023-03-23T21:35:28;12.60;99.90
28069;DHT22;15382;47.578;8.086;2023-03-23T21:45:28;12.60;99.90
28069;DHT22;15382;47.578;8.086;2023-03-23T21:55:30;12.60;99.90
28069;DHT22;15382;47.578;8.086;2023-03-23T22:05:31;12.60;99.90
28069;DHT22;15382;47.578;8.086;2023-03-23T22:15:32;12.40;99.90
28069;DHT22;15382;47.578;8.086;2023-03-23T22:25:34;12.40;99.90
28069;DHT22;15382;47.578;8.086;2023-03-23T22:35:35;12.30;99.90
28069;DHT22;15382;47.578;8.086;2023-03-23T22:45:36;12.00;99.90
28069;DHT22;15382;47.578;8.086;2023-03-23T22:55:44;11.90;99.90
28069;DHT22;15382;47.578;8.086;2023-03-23T23:05:48;11.80;99.90
28069;DHT22;15382;47.578;8.086;2023-03-23T23:15:53;11.70;99.90
28069;DHT22;15382;47.578;8.086;2023-03-23T23:25:54;11.80;99.90
28069;DHT22;15382;47.578;8.086;2023-03-23T23:35:55;11.80;99.90
28069;DHT22;15382;47.578;8.086;2023-03-23T23:45:55;11.90;99.90
28069;DHT22;15382;47.578;8.086;2023-03-23T23:56:02;11.60;99.90
